ADDS METAR Data INFO
IDs: Format: Raw Decoded Include TAF

Data at: 2253 UTC 22 Jun 2018

KBMG 222153Z 20005KT 10SM SCT065 SCT080 BKN100 24/21 A2966 RMK AO2 SLP036 T02390206
KBMG 222053Z 16005KT 10SM SCT023 SCT029 OVC036 23/20 A2966 RMK AO2 RAE03 SLP037 P0000 60001 T02330200 56006
KBMG 222041Z 15006KT 10SM BKN022 OVC036 23/20 A2967 RMK AO2 RAE03 P0000 T02330200
KBMG 221953Z 24003KT 9SM -RA SCT023 OVC034 23/19 A2967 RMK AO2 RAB44 SLP040 P0001 T02280194
KBMG 221853Z 18006KT 10SM FEW021 BKN038 OVC050 23/19 A2968 RMK AO2 SLP043 T02280189
KBMG 221844Z VRB05KT 10SM FEW020 SCT025 OVC037 23/18 A2968 RMK AO2 T02330183
KBMG 221822Z 15006KT 10SM SCT019 BKN027 OVC037 23/18 A2969 RMK AO2 T02280183
KBMG 221815Z 14006KT 10SM SCT019 SCT027 OVC037 23/18 A2969 RMK AO2 T02330183
KBMG 221753Z VRB04KT 10SM SCT014 BKN022 23/19 A2970 RMK AO2 SLP049 60003 T02280189 10233 20200 58010
KBMG 221715Z VRB06KT 10SM SCT014 BKN022 22/18 A2971 RMK AO2 T02170183
KBMG 221702Z VRB05KT 10SM FEW009 BKN014 BKN022 21/18 A2971 RMK AO2 T02110183
KBMG 221653Z 17003KT 10SM BKN011 BKN021 BKN090 21/18 A2972 RMK AO2 RAE46 SLP057 P0000 T02110183
KBMG 221637Z 13004KT 9SM -RA SCT011 BKN043 OVC110 21/19 A2972 RMK AO2 P0000 T02060194
KBMG 221553Z 15005KT 10SM -RA BKN009 OVC100 21/19 A2973 RMK AO2 LTG DSNT SE SLP060 P0002 T02060194
KBMG 221522Z 19005KT 9SM -RA BKN009 OVC100 20/19 A2973 RMK AO2 LTG DSNT SE P0002 T02000189
KBMG 221507Z 17004KT 10SM -RA FEW007 FEW070 OVC100 21/19 A2973 RMK AO2 P0001 T02060194
KBMG 221453Z 18004KT 10SM -RA FEW017 OVC100 20/19 A2973 RMK AO2 RAE03B19 SLP060 P0001 60001 T02000194 50003
KBMG 221353Z 25005KT 10SM -RA FEW065 BKN100 21/19 A2973 RMK AO2 RAB51 SLP061 P0000 T02060189
KBMG 221303Z 22009KT 10SM BKN007 BKN011 BKN055 21/19 A2973 RMK AO2 T02060194
KBMG 221253Z 22007KT 10SM SCT007 SCT120 21/19 A2973 RMK AO2 SLP061 T02060194
KBMG 221153Z 23003KT 10SM FEW006 FEW010 BKN110 20/19 A2972 RMK AO2 SLP055 60000 70092 T02000194 10211 20194 51010
KBMG 221053Z 23005KT 6SM BR BKN007 BKN013 OVC100 20/20 A2971 RMK AO2 RAB34E44 CIG 005V010 SLP054 P0000 T02000200
KBMG 221025Z 18003KT 7SM OVC005 20/20 A2970 RMK AO2 CIG 003V010 T02000200
KBMG 220953Z AUTO 19005KT 4SM BR OVC002 20/20 A2970 RMK AO2 SLP048 T02000200
KBMG 220853Z AUTO 15005KT 10SM OVC003 20/20 A2969 RMK AO2 SLP044 T02000200 56007
KBMG 220811Z AUTO 16006KT 10SM BKN002 20/20 A2968 RMK AO2 T02000200
KBMG 220753Z AUTO 16006KT 10SM FEW002 19/19 A2969 RMK AO2 SLP045 T01940194
KBMG 220653Z AUTO 12004KT 10SM FEW060 20/20 A2969 RMK AO2 SLP047 T02000200
KBMG 220637Z AUTO 14003KT 10SM FEW004 SCT011 BKN060 20/20 A2970 RMK AO2 T02000200
KBMG 220625Z AUTO 11005KT 10SM SCT004 BKN010 BKN055 21/20 A2970 RMK AO2 T02060200
KBMG 220615Z AUTO 14005KT 10SM BKN004 BKN010 BKN035 21/21 A2970 RMK AO2 CIG 003V007 T02060206
KBMG 220553Z AUTO 00000KT 10SM FEW004 BKN037 OVC055 21/21 A2971 RMK AO2 RAB01E31 TSB23E38 SLP053 P0015 60077 T02110206 10256 20206 58012
KBMG 220539Z AUTO 00000KT 10SM SCT004 BKN055 BKN080 21/21 A2971 RMK AO2 RAB01E31 TSB23E38 P0015 T02060206
KBMG 220523Z AUTO 03004KT 7SM -TSRA BKN004 BKN030 OVC038 21/21 A2972 RMK AO2 RAB01 TSB23 P0015 T02110206
KBMG 220517Z AUTO 00000KT 2SM RA BR BKN004 BKN025 OVC035 21/21 A2972 RMK AO2 RAB01 P0014 T02110211
KBMG 220508Z AUTO 00000KT 1 3/4SM -RA BR SCT004 BKN026 OVC032 21/21 A2973 RMK AO2 VIS 3/4V5 RAB01 P0010 T02110206
KBMG 220453Z AUTO 29007KT 10SM FEW004 BKN028 OVC035 21/21 A2973 RMK AO2 LTG DSNT W AND NW SLP059 T02110206 402780206
KBMG 220423Z AUTO 12004KT 10SM SCT004 BKN035 21/21 A2973 RMK AO2 T02110211
KBMG 220353Z AUTO 11003KT 10SM BKN035 BKN110 21/21 A2973 RMK AO2 RAE06 SLP061 P0000 T02110211
KBMG 220253Z AUTO 00000KT 4SM RA BR BKN041 OVC060 21/21 A2974 RMK AO2 SLP064 P0010 60062 T02110211 50011
KBMG 220249Z AUTO 00000KT 2 1/2SM RA BR BKN041 BKN050 OVC065 21/21 A2974 RMK AO2 P0010
KBMG 220216Z AUTO 00000KT 10SM -RA FEW005 BKN075 OVC110 21/21 A2973 RMK AO2 LTG DSNT E P0002 T02110206
KBMG 220201Z AUTO 00000KT 5SM -RA BR FEW010 BKN037 OVC110 21/21 A2974 RMK AO2 LTG DSNT E AND W P0001 T02110206
KBMG 220153Z AUTO 22004KT 2 1/2SM RA BR FEW015 BKN050 OVC065 21/21 A2973 RMK AO2 LTG DSNT NE AND W RAB35 SLP061 TS SW MOVG E LTGIC P0009 T02060206
KBMG 220146Z AUTO 24007KT 3SM +RA BR FEW015 BKN038 OVC110 21/21 A2973 RMK AO2 LTG DSNT NE AND E AND W RAB35 TS SW MOVG E LTGIC P0006 T02060206
KBMG 220053Z 00000KT 10SM VCTS BKN037 BKN060 BKN120 21/20 A2971 RMK AO2 PK WND 29027/0008 WSHFT 2355 LTG DSNT N-E RAB2354E41 TSE40 SLP053 TS N-NE MOVG E P0043 T02060200
KBMG 220046Z 13004KT 10SM VCTS SCT033 BKN046 OVC110 21/20 A2971 RMK AO2 PK WND 29027/0008 WSHFT 2355 LTG DSNT NE RAB2354E41 TSE40 TS N-NE MOVG E P0043 T02060200
KBMG 220021Z 27004KT 4SM +TSRA BR FEW023 BKN031 OVC043 21/19 A2971 RMK AO2 PK WND 29027/0008 WSHFT 2355 LTG DSNT N AND NE RAB2354 TS S-OVHD-NE MOVG E LTGICCG P0042 T02060194
KBMG 220012Z 26009G27KT 2SM +TSRA BKN021 BKN043 OVC080 21/18 A2971 RMK AO2 PK WND 29027/0008 WSHFT 2355 RAB2354 TS SW-OVHD-NE MOVG E LTGICCG P0031 T02110178
KBMG 220009Z 29016G27KT 240V310 3/4SM +TSRA BR SCT023 BKN043 OVC100 21/19 A2971 RMK AO2 PK WND 29027/0008 WSHFT 2355 RAB2354 TS SW-OVHD-NE MOVG E LTGICCG P0021 T02110189
KBMG 212353Z 23007KT 10SM TS FEW032 SCT070 BKN090 26/22 A2969 RMK AO2 LTG DSNT N AND NW TSB51 SLP044 TS SW MOVG E 60005 T02560222 10278 20228 55003
KBMG 212351Z 20006KT 10SM TS FEW050 SCT080 BKN120 26/22 A2969 RMK AO2 LTG DSNT N TSB51 TS SW MOVG E
KBMG 212253Z 20006KT 10SM SCT027 27/22 A2968 RMK AO2 LTG DSNT NW SLP041 TS NW T02670217
KBMG 212235Z 19007KT 10SM SCT027 28/22 A2968 RMK AO2 T02780222
KBMG 212153Z 23007KT 10SM BKN027 28/22 A2970 RMK AO2 SLP046 T02780222
KBMG 212127Z 21004KT 10SM BKN027 28/23 A2969 RMK AO2 T02780228
KBMG 212053Z 21005KT 10SM FEW022 SCT039 BKN060 27/23 A2970 RMK AO2 SLP049 60005 T02720233 58016
KBMG 212011Z 25005KT 10SM SCT020 SCT027 BKN035 26/23 A2971 RMK AO2 LTG DSNT NE T02610228
KBMG 211953Z 21003KT 10SM SCT021 BKN027 OVC040 25/22 A2972 RMK AO2 SLP057 T02500222
KBMG 211925Z VRB06KT 10SM BKN019 BKN029 OVC045 26/22 A2973 RMK AO2 T02560222
KBMG 211853Z 22004KT 10SM FEW013 BKN044 OVC055 25/22 A2974 RMK AO2 RAE17 SLP061 P0005 T02500222
KBMG 211837Z 18006KT 10SM FEW012 SCT022 BKN042 25/23 A2974 RMK AO2 RAE17 P0005 T02500228
KBMG 211819Z 21005KT 10SM SCT011 BKN018 OVC040 23/22 A2974 RMK AO2 RAE17 P0005 T02330222
KBMG 211812Z 21005KT 2 1/2SM -RA BR FEW009 BKN020 OVC042 23/22 A2975 RMK AO2 P0005 T02330222
KBMG 211806Z 22005KT 1 3/4SM RA BR SCT012 BKN018 OVC040 23/22 A2975 RMK AO2 P0004 T02280222
KBMG 211757Z 21006KT 2 1/2SM RA BR FEW010 BKN017 OVC041 23/22 A2975 RMK AO2 P0002 T02280217
KBMG 211753Z 20011KT 5SM -RA BR SCT014 BKN030 OVC050 24/22 A2975 RMK AO2 RAB52 SLP067 P0001 60010 T02390217 10244 20222 57006
KBMG 211748Z 21006KT 8SM FEW014 BKN032 OVC050 24/22 A2975 RMK AO2
KBMG 211700Z 20008KT 10SM SCT013 BKN021 OVC039 23/22 A2977 RMK AO2 T02330217
KBMG 211653Z 19008KT 10SM SCT013 BKN030 OVC049 24/22 A2977 RMK AO2 SLP073 T02390222
KBMG 211650Z 19007KT 10SM FEW011 BKN030 OVC049 24/22 A2977 RMK AO2
KBMG 211604Z 21006KT 10SM FEW009 BKN019 OVC070 23/22 A2979 RMK AO2 T02330217
KBMG 211553Z 21005KT 10SM BKN010 BKN016 OVC070 23/22 A2978 RMK AO2 RAE46 SLP076 P0001 T02280217
KBMG 211544Z 21006KT 10SM -RA SCT010 OVC016 23/22 A2978 RMK AO2 P0001 T02280217
KBMG 211527Z 22007KT 10SM -RA BKN010 BKN070 OVC100 23/22 A2978 RMK AO2 P0001 T02280222
KBMG 211453Z 20007KT 8SM -RA FEW008 BKN100 OVC110 22/22 A2978 RMK AO2 SLP077 P0005 60008 T02220217 58007
KBMG 211441Z 22004KT 6SM -RA BR SCT009 BKN055 OVC110 22/22 A2979 RMK AO2 P0004 T02220222
KBMG 211432Z 22006KT 5SM -RA BR BKN009 BKN028 OVC100 22/22 A2979 RMK AO2 P0004 T02220222
KBMG 211411Z 24005KT 4SM -RA BR BKN009 BKN028 OVC075 22/22 A2980 RMK AO2 CIG 005V017 P0002 T02220217
KBMG 211359Z 23005KT 5SM -RA BR SCT009 BKN028 OVC110 22/22 A2980 RMK AO2 P0000 T02220217
KBMG 211353Z 23006KT 6SM -RA BR SCT011 SCT080 OVC110 22/22 A2980 RMK AO2 RAB1256 SLP084 P0003 T02220222
KBMG 211304Z 22006KT 10SM -RA FEW009 SCT070 OVC085 22/21 A2980 RMK AO2 RAB1256 P0000 T02220211
KBMG 211253Z 23005KT 10SM FEW070 OVC090 22/21 A2980 RMK AO2 SLP083 T02220211
KBMG 211153Z 21003KT 10SM SCT020 OVC080 22/20 A2981 RMK AO2 RAB08E53 SLP085 P0000 60000 T02220200 10244 20222 53003